Time;durP1;ratioP1;P1;durP2;ratioP2;P2;SDS_P1;SDS_P2;PMS_P1;PMS_P2;Temp;Humidity;BMP_temperature;BMP_pressure;BME280_temperature;BME280_humidity;BME280_pressure;Samples;Min_cycle;Max_cycle;Signal;HPM_P1;HPM_P2
2021/11/15 00:00:59;;;;;;;111.35;57.15;;;;;;;4.53;100.00;100137.88;2096382;28;20706;-74
2021/11/15 00:02:02;;;;;;;109.95;56.42;;;;;;;4.51;100.00;100142.56;2096465;28;20222;-74
2021/11/15 00:03:04;;;;;;;115.25;57.70;;;;;;;4.50;100.00;100140.97;2095728;28;20217;-74
2021/11/15 00:04:05;;;;;;;115.43;57.53;;;;;;;4.51;100.00;100145.19;2095746;28;20672;-74
2021/11/15 00:05:08;;;;;;;113.60;56.63;;;;;;;4.56;100.00;100143.72;2096416;28;20225;-74
2021/11/15 00:06:13;;;;;;;114.60;58.88;;;;;;;4.53;100.00;100142.34;2095159;28;20221;-74
2021/11/15 00:07:14;;;;;;;115.05;57.58;;;;;;;4.52;100.00;100140.75;2095653;28;20791;-74
2021/11/15 00:08:16;;;;;;;110.57;58.37;;;;;;;4.52;100.00;100149.47;2095653;28;20748;-74
2021/11/15 00:09:17;;;;;;;111.38;57.03;;;;;;;4.51;100.00;100141.75;2095755;28;20448;-74
2021/11/15 00:10:18;;;;;;;115.77;57.50;;;;;;;4.53;100.00;100143.16;2095600;28;20761;-74
2021/11/15 00:11:19;;;;;;;115.75;57.17;;;;;;;4.53;100.00;100140.53;2087344;28;20226;-74
2021/11/15 00:12:21;;;;;;;108.00;55.53;;;;;;;4.51;100.00;100145.19;2095750;28;20742;-74
2021/11/15 00:13:22;;;;;;;117.28;56.25;;;;;;;4.49;100.00;100147.28;2095833;28;20222;-74
2021/11/15 00:14:24;;;;;;;116.07;56.95;;;;;;;4.50;100.00;100146.25;2096040;28;20230;-74
2021/11/15 00:15:25;;;;;;;109.07;56.55;;;;;;;4.56;100.00;100141.88;2096413;28;20222;-74
2021/11/15 00:16:28;;;;;;;108.85;56.22;;;;;;;4.53;100.00;100143.16;2096411;28;20222;-74
2021/11/15 00:17:29;;;;;;;110.82;55.67;;;;;;;4.48;100.00;100144.88;2095716;28;20312;-74
2021/11/15 00:18:31;;;;;;;113.90;55.43;;;;;;;4.47;100.00;100138.78;2095757;28;20222;-74
2021/11/15 00:19:32;;;;;;;98.22;55.08;;;;;;;4.57;100.00;100140.03;2096351;28;20226;-74
2021/11/15 00:20:35;;;;;;;110.13;55.67;;;;;;;4.56;100.00;100151.66;2096478;28;20222;-74
2021/11/15 00:21:38;;;;;;;118.65;56.42;;;;;;;4.49;100.00;100147.28;2096349;28;20455;-74
2021/11/15 00:22:39;;;;;;;101.63;54.60;;;;;;;4.47;100.00;100138.78;2095165;28;20248;-74
2021/11/15 00:23:41;;;;;;;101.67;56.10;;;;;;;4.53;100.00;100152.94;2095555;28;20745;-74
2021/11/15 00:24:41;;;;;;;102.82;54.70;;;;;;;4.54;100.00;100144.75;2095369;28;20229;-74
2021/11/15 00:25:43;;;;;;;111.17;54.40;;;;;;;4.52;100.00;100149.47;2087228;28;20246;-74
2021/11/15 00:26:46;;;;;;;99.82;53.58;;;;;;;4.52;100.00;100144.19;2087142;28;20575;-74
2021/11/15 00:27:48;;;;;;;108.20;55.65;;;;;;;4.50;100.00;100145.44;2087479;28;20610;-74
2021/11/15 00:28:49;;;;;;;105.28;55.15;;;;;;;4.47;100.00;100146.72;2095371;28;20755;-74
2021/11/15 00:29:50;;;;;;;108.47;55.00;;;;;;;4.47;100.00;100152.00;2095543;28;20644;-74
2021/11/15 00:30:51;;;;;;;104.85;54.22;;;;;;;4.46;100.00;100149.59;2095601;28;20297;-74
2021/11/15 00:31:53;;;;;;;115.17;55.80;;;;;;;4.43;100.00;100158.78;2087661;28;20222;-74
2021/11/15 00:32:54;;;;;;;107.45;55.55;;;;;;;4.40;100.00;100153.13;2087159;28;20235;-74
2021/11/15 00:33:59;;;;;;;108.80;53.90;;;;;;;4.36;100.00;100147.50;2079210;28;20323;-74
2021/11/15 00:35:00;;;;;;;110.38;55.92;;;;;;;4.38;100.00;100150.72;2083476;28;20276;-74
2021/11/15 00:36:02;;;;;;;114.00;56.37;;;;;;;4.43;100.00;100155.31;2091387;28;20696;-74
2021/11/15 00:37:04;;;;;;;107.35;53.83;;;;;;;4.44;100.00;100154.31;2087950;28;20233;-74
2021/11/15 00:38:06;;;;;;;103.95;55.45;;;;;;;4.43;100.00;100145.56;2087853;28;20222;-74
2021/11/15 00:39:07;;;;;;;112.15;55.30;;;;;;;4.40;100.00;100151.28;2095729;28;20588;-74
2021/11/15 00:40:11;;;;;;;101.83;53.93;;;;;;;4.36;100.00;100163.38;2096256;28;20250;-74
2021/11/15 00:41:13;;;;;;;106.65;55.45;;;;;;;4.33;100.00;100158.50;2088335;28;20261;-74
2021/11/15 00:42:15;;;;;;;107.95;55.13;;;;;;;4.30;100.00;100153.69;2079037;28;20248;-74
2021/11/15 00:43:16;;;;;;;106.63;54.22;;;;;;;4.30;100.00;100158.97;2087132;28;20257;-74
2021/11/15 00:44:18;;;;;;;99.70;52.40;;;;;;;4.29;100.00;100157.38;2087895;28;20223;-74
2021/11/15 00:45:19;;;;;;;111.70;55.67;;;;;;;4.30;100.00;100153.69;2086746;28;20226;-74
2021/11/15 00:46:21;;;;;;;112.77;54.90;;;;;;;4.33;100.00;100157.72;2078723;28;20258;-74
2021/11/15 00:47:22;;;;;;;103.47;53.60;;;;;;;4.33;100.00;100153.22;2088797;28;20219;-74
2021/11/15 00:48:24;;;;;;;99.32;53.53;;;;;;;4.36;100.00;100159.91;2087845;28;20222;-74
2021/11/15 00:49:25;;;;;;;108.80;54.67;;;;;;;4.35;100.00;100161.75;2087175;28;20555;-74
2021/11/15 00:50:27;;;;;;;102.03;53.00;;;;;;;4.38;100.00;100156.00;2087214;28;20311;-74
2021/11/15 00:51:29;;;;;;;108.85;53.63;;;;;;;4.42;100.00;100148.41;2087075;28;20227;-74
2021/11/15 00:52:32;;;;;;;98.18;53.13;;;;;;;4.39;100.00;100147.03;2078928;28;20603;-74
2021/11/15 00:53:34;;;;;;;104.75;54.30;;;;;;;4.40;100.00;100153.13;2079047;28;20228;-74
2021/11/15 00:54:38;;;;;;;104.50;52.13;;;;;;;4.37;100.00;100149.13;2079063;28;20234;-74
2021/11/15 00:55:39;;;;;;;104.32;51.90;;;;;;;4.51;100.00;100150.50;2086562;28;20230;-74
2021/11/15 00:56:41;;;;;;;95.57;51.07;;;;;;;4.54;100.00;100152.69;2087778;28;20693;-74
2021/11/15 00:57:42;;;;;;;104.35;51.05;;;;;;;4.62;100.00;100150.75;2086904;28;20746;-75
2021/11/15 00:58:44;;;;;;;94.60;49.03;;;;;;;4.64;100.00;100154.75;2087088;28;20660;-74
2021/11/15 00:59:45;;;;;;;88.40;47.17;;;;;;;4.64;100.00;100156.59;2086809;28;20686;-74
2021/11/15 01:00:48;;;;;;;94.67;50.13;;;;;;;4.62;100.00;100156.84;2087031;28;20240;-74
2021/11/15 01:01:52;;;;;;;89.28;48.58;;;;;;;4.60;100.00;100158.09;2088489;28;20238;-75
2021/11/15 01:02:55;;;;;;;84.30;46.05;;;;;;;4.54;100.00;100150.06;2078106;28;20268;-75
2021/11/15 01:03:56;;;;;;;85.47;47.38;;;;;;;4.57;100.00;100164.63;2087013;28;20704;-75
2021/11/15 01:04:57;;;;;;;86.23;46.47;;;;;;;4.58;100.00;100157.50;2086722;28;20646;-75
2021/11/15 01:06:00;;;;;;;93.60;46.60;;;;;;;4.56;100.00;100151.66;2078635;28;20771;-75
2021/11/15 01:07:01;;;;;;;89.60;47.80;;;;;;;4.53;100.00;100161.66;2078822;28;20251;-74
2021/11/15 01:08:04;;;;;;;89.57;47.50;;;;;;;4.51;100.00;100155.78;2080683;28;20279;-74
2021/11/15 01:09:06;;;;;;;86.85;46.30;;;;;;;4.47;100.00;100159.91;2087045;28;20222;-75
2021/11/15 01:10:09;;;;;;;82.43;46.03;;;;;;;4.49;100.00;100163.13;2089375;28;20280;-75
2021/11/15 01:11:11;;;;;;;94.60;46.97;;;;;;;4.44;100.00;100165.69;2086737;28;20298;-74
2021/11/15 01:12:12;;;;;;;85.55;46.40;;;;;;;4.43;100.00;100161.44;2087152;28;20253;-75
2021/11/15 01:13:14;;;;;;;83.13;45.70;;;;;;;4.41;100.00;100166.13;2087614;28;20226;-75
2021/11/15 01:14:14;;;;;;;87.25;47.60;;;;;;;4.45;100.00;100162.00;2087412;28;20237;-75
2021/11/15 01:15:19;;;;;;;83.63;46.70;;;;;;;4.45;100.00;100162.00;2087634;28;20247;-75
2021/11/15 01:16:20;;;;;;;87.30;46.28;;;;;;;4.44;100.00;100160.38;2086855;28;20223;-75
2021/11/15 01:17:22;;;;;;;82.83;47.37;;;;;;;4.40;100.00;100174.28;2078521;28;20215;-75
2021/11/15 01:18:22;;;;;;;83.60;47.03;;;;;;;4.35;100.00;100163.59;2094918;28;20229;-75
2021/11/15 01:19:24;;;;;;;90.37;47.83;;;;;;;4.33;100.00;100169.09;2095771;28;20317;-74
2021/11/15 01:20:28;;;;;;;85.35;47.83;;;;;;;4.35;100.00;100160.97;2094332;28;20695;-75
2021/11/15 01:21:30;;;;;;;92.25;48.58;;;;;;;4.36;100.00;100167.84;2095137;28;20272;-75
2021/11/15 01:22:34;;;;;;;91.95;48.85;;;;;;;4.34;100.00;100169.88;2094935;28;20222;-74
2021/11/15 01:23:37;;;;;;;93.68;49.63;;;;;;;4.30;100.00;100174.84;2080835;28;20289;-75
2021/11/15 01:24:41;;;;;;;97.88;51.08;;;;;;;4.29;100.00;100167.13;2080959;28;20281;-75
2021/11/15 01:25:42;;;;;;;84.05;47.35;;;;;;;4.28;100.00;100165.53;2082571;28;20231;-75
2021/11/15 01:26:43;;;;;;;82.90;46.15;;;;;;;4.25;100.00;100167.56;2086841;28;20223;-75
2021/11/15 01:27:45;;;;;;;85.20;47.23;;;;;;;4.22;100.00;100167.22;2087475;28;20692;-75
2021/11/15 01:28:50;;;;;;;86.80;47.67;;;;;;;4.20;100.00;100169.31;2087484;28;20676;-75
2021/11/15 01:29:52;;;;;;;84.07;47.80;;;;;;;4.20;100.00;100169.31;2087493;28;20547;-74
2021/11/15 01:30:54;;;;;;;82.80;46.95;;;;;;;4.20;100.00;100170.09;2087137;28;20313;-75
2021/11/15 01:31:57;;;;;;;94.65;48.85;;;;;;;4.20;100.00;100178.03;2087460;28;20762;-75
2021/11/15 01:32:58;;;;;;;84.30;46.28;;;;;;;4.16;100.00;100174.22;2086697;28;20219;-74
2021/11/15 01:34:01;;;;;;;90.72;47.55;;;;;;;4.22;100.00;100170.69;2086889;28;20227;-74
2021/11/15 01:35:04;;;;;;;87.28;47.17;;;;;;;4.25;100.00;100177.34;2087345;28;20226;-75
2021/11/15 01:36:05;;;;;;;81.60;46.80;;;;;;;4.34;100.00;100175.97;2086526;28;20226;-75
2021/11/15 01:37:07;;;;;;;85.38;46.40;;;;;;;4.34;100.00;100169.88;2086664;28;20321;-75
2021/11/15 01:38:09;;;;;;;80.85;45.33;;;;;;;4.38;100.00;100177.16;2086952;28;20314;-74
2021/11/15 01:39:12;;;;;;;86.70;47.00;;;;;;;4.41;100.00;100176.69;2086588;28;20233;-75
2021/11/15 01:40:16;;;;;;;78.45;44.75;;;;;;;4.35;100.00;100180.25;2086737;28;20732;-74
2021/11/15 01:41:18;;;;;;;80.72;44.80;;;;;;;4.32;100.00;100179.88;2087339;28;20218;-75
2021/11/15 01:42:21;;;;;;;85.13;45.83;;;;;;;4.31;100.00;100176.44;2087419;28;20279;-75
2021/11/15 01:43:24;;;;;;;79.97;44.03;;;;;;;4.33;100.00;100184.94;2086064;28;20233;-75
2021/11/15 01:44:25;;;;;;;80.80;45.13;;;;;;;4.33;100.00;100182.28;2078342;28;20235;-75
2021/11/15 01:45:28;;;;;;;84.03;46.23;;;;;;;4.37;100.00;100194.03;2086606;28;20223;-74
2021/11/15 01:46:29;;;;;;;81.15;44.50;;;;;;;4.42;100.00;100182.75;2087365;28;20235;-74
2021/11/15 01:47:31;;;;;;;82.53;44.20;;;;;;;4.40;100.00;100185.63;2087456;28;20748;-74
2021/11/15 01:48:32;;;;;;;78.50;43.33;;;;;;;4.42;100.00;100186.22;2086864;28;20226;-75
2021/11/15 01:49:34;;;;;;;90.67;46.60;;;;;;;4.36;100.00;100187.16;2078339;28;20254;-75
2021/11/15 01:50:37;;;;;;;81.60;45.25;;;;;;;4.35;100.00;100188.19;2086721;28;20766;-74
2021/11/15 01:51:39;;;;;;;87.32;45.88;;;;;;;4.44;100.00;100189.44;2086196;28;20226;-74
2021/11/15 01:52:40;;;;;;;77.13;44.50;;;;;;;4.47;100.00;100191.63;2086572;28;20241;-74
2021/11/15 01:53:42;;;;;;;80.35;44.75;;;;;;;4.42;100.00;100193.34;2086525;28;20681;-75
2021/11/15 01:54:44;;;;;;;80.90;46.00;;;;;;;4.38;100.00;100190.34;2078318;28;20289;-74
2021/11/15 01:55:47;;;;;;;84.53;46.70;;;;;;;4.40;100.00;100185.63;2086419;28;20226;-74
2021/11/15 01:56:49;;;;;;;85.20;46.33;;;;;;;4.34;100.00;100191.81;2087215;28;20225;-74
2021/11/15 01:57:53;;;;;;;79.18;45.65;;;;;;;4.31;100.00;100197.56;2087261;28;20302;-75
2021/11/15 01:58:54;;;;;;;89.63;46.00;;;;;;;4.36;100.00;100195.06;2094371;28;20222;-74
2021/11/15 01:59:55;;;;;;;86.93;47.75;;;;;;;4.39;100.00;100188.50;2086477;28;20607;-74
2021/11/15 02:00:58;;;;;;;83.55;45.38;;;;;;;4.39;100.00;100196.44;2086575;28;20660;-74
2021/11/15 02:01:59;;;;;;;80.90;43.95;;;;;;;4.34;100.00;100188.38;2094890;28;20293;-74
2021/11/15 02:03:01;;;;;;;79.93;45.88;;;;;;;4.30;100.00;100189.88;2095458;28;20585;-74
2021/11/15 02:04:05;;;;;;;74.70;45.00;;;;;;;4.26;100.00;100189.53;2094406;28;20226;-75
2021/11/15 02:05:06;;;;;;;87.35;45.97;;;;;;;4.22;100.00;100183.09;2094848;28;20687;-75
2021/11/15 02:06:10;;;;;;;89.32;46.88;;;;;;;4.22;100.00;100188.38;2095191;28;20226;-75
2021/11/15 02:07:11;;;;;;;87.03;46.17;;;;;;;4.34;100.00;100180.44;2094248;28;20217;-75
2021/11/15 02:08:13;;;;;;;88.20;46.87;;;;;;;4.40;100.00;100190.94;2086446;28;20223;-74
2021/11/15 02:09:14;;;;;;;85.55;46.08;;;;;;;4.32;100.00;100188.63;2086622;28;20218;-74
2021/11/15 02:10:17;;;;;;;82.17;46.37;;;;;;;4.26;100.00;100181.63;2094814;28;20269;-75
2021/11/15 02:11:20;;;;;;;84.63;46.55;;;;;;;4.24;100.00;100195.03;2095560;28;20771;-74
2021/11/15 02:12:23;;;;;;;79.35;45.25;;;;;;;4.37;100.00;100195.88;2095112;28;20226;-74
2021/11/15 02:13:24;;;;;;;87.15;46.35;;;;;;;4.30;100.00;100195.16;2095456;28;20222;-75
2021/11/15 02:14:26;;;;;;;92.55;46.30;;;;;;;4.22;100.00;100183.09;2095006;28;20312;-75
2021/11/15 02:15:27;;;;;;;86.57;46.08;;;;;;;4.18;100.00;100187.22;2094531;28;20230;-75
2021/11/15 02:16:29;;;;;;;86.97;46.88;;;;;;;4.19;100.00;100194.09;2094611;28;20705;-75
2021/11/15 02:17:31;;;;;;;85.57;47.15;;;;;;;4.15;100.00;100195.56;2095460;28;20763;-74
2021/11/15 02:18:33;;;;;;;91.97;48.53;;;;;;;4.11;100.00;100197.06;2094000;28;20325;-74
2021/11/15 02:19:34;;;;;;;83.40;44.58;;;;;;;4.13;100.00;100201.09;2094703;28;20249;-74
2021/11/15 02:20:48;;;;;;;83.03;46.37;;;;;;;4.12;100.00;100193.41;2095566;28;20226;-75
2021/11/15 02:21:50;;;;;;;80.18;45.88;;;;;;;4.12;100.00;100196.03;2095242;28;20217;-75
2021/11/15 02:22:52;;;;;;;87.95;45.15;;;;;;;4.07;100.00;100198.53;2095362;28;20226;-74
2021/11/15 02:23:54;;;;;;;84.28;46.08;;;;;;;4.03;100.00;100200.03;2094148;28;20217;-75
2021/11/15 02:24:55;;;;;;;80.95;44.45;;;;;;;4.06;100.00;100199.56;2086353;28;20572;-75
2021/11/15 02:26:00;;;;;;;92.07;48.43;;;;;;;4.09;100.00;100199.13;2086406;28;20230;-74
2021/11/15 02:27:01;;;;;;;79.35;44.95;;;;;;;4.04;100.00;100196.34;2094728;28;20218;-74
2021/11/15 02:28:03;;;;;;;84.65;46.33;;;;;;;4.04;100.00;100201.63;2094269;28;20273;-74
2021/11/15 02:29:04;;;;;;;94.03;46.95;;;;;;;4.06;100.00;100204.84;2094683;28;20214;-75
2021/11/15 02:30:12;;;;;;;87.97;47.43;;;;;;;4.03;100.00;100205.31;2094570;28;20296;-75
2021/11/15 02:31:17;;;;;;;85.75;45.63;;;;;;;4.06;100.00;100207.50;2086756;28;20619;-74
2021/11/15 02:32:20;;;;;;;88.82;45.92;;;;;;;4.02;100.00;100207.16;2094707;28;20210;-74
2021/11/15 02:33:21;;;;;;;77.90;46.90;;;;;;;3.98;100.00;100206.78;2094547;28;20288;-75
2021/11/15 02:34:23;;;;;;;84.27;46.87;;;;;;;4.01;100.00;100202.91;2085817;28;20246;-75
2021/11/15 02:35:24;;;;;;;86.20;48.05;;;;;;;4.02;100.00;100209.78;2094608;28;20221;-75
2021/11/15 02:36:29;;;;;;;83.77;46.53;;;;;;;4.04;100.00;100209.56;2094881;28;20254;-74
2021/11/15 02:37:29;;;;;;;84.05;45.88;;;;;;;4.03;100.00;100215.88;2094691;28;20719;-75
2021/11/15 02:38:31;;;;;;;91.07;46.80;;;;;;;4.00;100.00;100208.38;2095245;28;20584;-75
2021/11/15 02:39:32;;;;;;;77.00;45.67;;;;;;;3.97;100.00;100215.72;2095330;28;20221;-75
2021/11/15 02:40:34;;;;;;;81.82;46.10;;;;;;;3.98;100.00;100213.88;2095364;28;20249;-75
2021/11/15 02:41:35;;;;;;;86.63;46.47;;;;;;;3.99;100.00;100218.13;2094403;28;20226;-75
2021/11/15 02:42:37;;;;;;;83.47;47.53;;;;;;;3.97;100.00;100212.28;2086184;28;20226;-75
2021/11/15 02:43:38;;;;;;;87.35;45.83;;;;;;;3.95;100.00;100219.63;2085967;28;20231;-75
2021/11/15 02:44:39;;;;;;;83.13;45.20;;;;;;;3.92;100.00;100212.16;2094594;28;20233;-75
2021/11/15 02:45:40;;;;;;;80.63;45.88;;;;;;;3.97;100.00;100222.84;2094520;28;20461;-75
2021/11/15 02:46:42;;;;;;;82.40;47.40;;;;;;;3.96;100.00;100221.22;2094541;28;20708;-74
2021/11/15 02:47:43;;;;;;;80.13;47.08;;;;;;;3.98;100.00;100216.53;2095356;28;20300;-74
2021/11/15 02:48:45;;;;;;;81.78;46.15;;;;;;;3.95;100.00;100215.16;2095318;28;20733;-74
2021/11/15 02:49:46;;;;;;;85.90;48.05;;;;;;;3.93;100.00;100219.84;2094574;28;20723;-75
2021/11/15 02:50:48;;;;;;;84.70;48.63;;;;;;;3.91;100.00;100221.91;2094666;28;20649;-74
2021/11/15 02:51:51;;;;;;;78.80;46.90;;;;;;;3.88;100.00;100224.19;2095177;28;20233;-74
2021/11/15 02:52:56;;;;;;;87.15;46.80;;;;;;;3.87;100.00;100223.38;2085800;28;20234;-74
2021/11/15 02:53:58;;;;;;;91.35;49.60;;;;;;;3.91;100.00;100219.28;2080431;28;20235;-75
2021/11/15 02:54:59;;;;;;;84.78;48.95;;;;;;;3.88;100.00;100219.72;2078036;28;20219;-74
2021/11/15 02:56:03;;;;;;;81.30;46.28;;;;;;;3.86;100.00;100221.78;2077964;28;20241;-75
2021/11/15 02:57:04;;;;;;;77.90;47.17;;;;;;;3.86;100.00;100224.41;2078377;28;20239;-75
2021/11/15 02:58:09;;;;;;;84.70;48.47;;;;;;;3.84;100.00;100226.47;2086237;28;20754;-75
2021/11/15 02:59:09;;;;;;;83.95;46.90;;;;;;;3.83;100.00;100235.44;2086758;28;20234;-75
2021/11/15 03:00:25;;;;;;;91.20;46.73;;;;;;;3.81;100.00;100224.25;2086358;28;20219;-74
2021/11/15 03:01:26;;;;;;;81.50;46.88;;;;;;;3.83;100.00;100226.72;2086043;28;20242;-74
2021/11/15 03:02:29;;;;;;;75.13;44.90;;;;;;;3.89;100.00;100218.69;2086102;28;20234;-75
2021/11/15 03:03:30;;;;;;;86.18;47.80;;;;;;;3.94;100.00;100224.09;2086282;28;20227;-75
2021/11/15 03:04:32;;;;;;;84.30;47.10;;;;;;;3.90;100.00;100228.19;2087123;28;20227;-75
2021/11/15 03:05:34;;;;;;;77.80;44.95;;;;;;;3.90;100.00;100227.41;2086179;28;20233;-75
2021/11/15 03:06:36;;;;;;;93.03;49.03;;;;;;;3.88;100.00;100219.72;2086184;28;20230;-74
2021/11/15 03:07:38;;;;;;;84.60;48.85;;;;;;;3.97;100.00;100231.56;2086043;28;20249;-74
2021/11/15 03:08:40;;;;;;;89.38;47.88;;;;;;;4.03;100.00;100231.72;2077941;28;20237;-74
2021/11/15 03:09:41;;;;;;;90.50;47.67;;;;;;;3.99;100.00;100226.06;2086300;28;20598;-74
2021/11/15 03:10:44;;;;;;;84.43;47.50;;;;;;;3.89;100.00;100221.31;2086205;28;20250;-74
2021/11/15 03:11:45;;;;;;;85.97;46.35;;;;;;;3.89;100.00;100221.31;2086233;28;20280;-75
2021/11/15 03:12:46;;;;;;;85.25;48.00;;;;;;;3.86;100.00;100228.88;2086211;28;20229;-75
2021/11/15 03:13:49;;;;;;;89.95;48.13;;;;;;;3.87;100.00;100231.31;2086201;28;20260;-75
2021/11/15 03:14:50;;;;;;;85.00;47.45;;;;;;;3.92;100.00;100239.38;2085967;28;20613;-75
2021/11/15 03:15:56;;;;;;;81.13;46.85;;;;;;;3.89;100.00;100237.16;2077893;28;20223;-75
2021/11/15 03:16:58;;;;;;;83.93;46.65;;;;;;;3.83;100.00;100229.34;2085972;28;20234;-74
2021/11/15 03:18:25;;;;;;;82.05;46.35;;;;;;;3.93;100.00;100230.41;2084112;28;20235;-74
2021/11/15 03:19:26;;;;;;;83.30;47.03;;;;;;;3.95;100.00;100230.19;2085882;28;20648;-75
2021/11/15 03:20:29;;;;;;;85.33;47.23;;;;;;;3.86;100.00;100221.78;2086924;28;20303;-75
2021/11/15 03:21:35;;;;;;;76.30;46.13;;;;;;;3.89;100.00;100231.06;2087014;28;20233;-75
2021/11/15 03:22:35;;;;;;;78.97;46.38;;;;;;;3.88;100.00;100224.19;2086005;28;20619;-75
2021/11/15 03:23:41;;;;;;;75.80;44.73;;;;;;;3.88;100.00;100229.47;2086288;28;20255;-74
2021/11/15 03:24:41;;;;;;;80.68;45.95;;;;;;;3.92;100.00;100230.66;2093959;28;20283;-74
2021/11/15 03:25:44;;;;;;;86.03;47.00;;;;;;;3.92;100.00;100234.09;2086027;28;20319;-74
2021/11/15 03:26:45;;;;;;;82.63;47.08;;;;;;;3.91;100.00;100232.47;2086188;28;20218;-74
2021/11/15 03:27:48;;;;;;;81.07;46.90;;;;;;;3.87;100.00;100223.38;2086029;28;20705;-74
2021/11/15 03:28:52;;;;;;;77.38;46.08;;;;;;;3.84;100.00;100233.59;2086048;28;20226;-74
2021/11/15 03:29:53;;;;;;;81.82;47.33;;;;;;;3.80;100.00;100229.78;2087621;28;20328;-75
2021/11/15 03:30:59;;;;;;;83.10;47.33;;;;;;;3.82;100.00;100233.81;2087094;28;20296;-75
2021/11/15 03:31:59;;;;;;;91.45;47.10;;;;;;;3.88;100.00;100234.75;2087682;28;20218;-74
2021/11/15 03:33:01;;;;;;;81.10;45.70;;;;;;;3.83;100.00;100232.78;2087926;28;20248;-75
2021/11/15 03:34:06;;;;;;;82.20;46.60;;;;;;;3.79;100.00;100230.81;2079451;28;20224;-75
2021/11/15 03:35:09;;;;;;;83.30;47.80;;;;;;;3.77;100.00;100227.59;2079337;28;20652;-75
2021/11/15 03:36:11;;;;;;;80.80;44.97;;;;;;;3.77;100.00;100236.31;2079436;28;20234;-75
2021/11/15 03:37:13;;;;;;;80.40;45.72;;;;;;;3.76;100.00;100221.50;2087686;28;20680;-74
2021/11/15 03:38:15;;;;;;;87.55;45.67;;;;;;;3.80;100.00;100233.22;2088364;28;20685;-75
2021/11/15 03:39:17;;;;;;;85.70;46.00;;;;;;;3.90;100.00;100230.84;2087591;28;20325;-75
2021/11/15 03:40:23;;;;;;;78.82;45.10;;;;;;;3.93;100.00;100222.50;2087730;28;20222;-75
2021/11/15 03:41:27;;;;;;;80.10;46.10;;;;;;;3.99;100.00;100228.69;2088041;28;20229;-74
2021/11/15 03:42:28;;;;;;;82.43;45.78;;;;;;;4.03;100.00;100229.06;2088371;28;20214;-75
2021/11/15 03:43:31;;;;;;;80.43;44.90;;;;;;;3.94;100.00;100225.94;2088309;28;20237;-75
2021/11/15 03:44:31;;;;;;;85.93;44.70;;;;;;;3.97;100.00;100218.38;2088341;28;20452;-75
2021/11/15 03:45:34;;;;;;;83.40;45.97;;;;;;;4.01;100.00;100220.56;2087486;28;20313;-74
2021/11/15 03:46:35;;;;;;;83.90;44.53;;;;;;;4.05;100.00;100227.00;2079354;28;20223;-75
2021/11/15 03:47:37;;;;;;;84.17;46.50;;;;;;;4.01;100.00;100228.50;2079242;28;20777;-74
2021/11/15 03:48:40;;;;;;;76.32;43.80;;;;;;;4.00;100.00;100222.41;2087214;28;20461;-74
2021/11/15 03:49:41;;;;;;;78.53;43.97;;;;;;;3.94;100.00;100228.59;2087395;28;20234;-75
2021/11/15 03:50:43;;;;;;;80.53;43.53;;;;;;;3.89;100.00;100221.31;2079287;28;20243;-75
2021/11/15 03:51:44;;;;;;;77.72;44.50;;;;;;;3.86;100.00;100220.97;2079271;28;20223;-75
2021/11/15 03:52:47;;;;;;;82.53;44.83;;;;;;;3.83;100.00;100221.44;2087566;28;20250;-75
2021/11/15 03:53:49;;;;;;;78.90;44.25;;;;;;;3.85;100.00;100214.09;2087130;28;20215;-75
2021/11/15 03:54:51;;;;;;;80.32;44.90;;;;;;;3.84;100.00;100217.75;2087529;28;20577;-75
2021/11/15 03:55:53;;;;;;;81.55;46.05;;;;;;;3.84;100.00;100223.03;2087015;28;20230;-74
2021/11/15 03:56:54;;;;;;;77.68;45.85;;;;;;;3.81;100.00;100226.09;2087457;28;20223;-74
2021/11/15 03:57:56;;;;;;;80.47;45.92;;;;;;;3.78;100.00;100222.06;2087499;28;20246;-75
2021/11/15 03:58:58;;;;;;;80.30;44.90;;;;;;;3.78;100.00;100224.72;2087625;28;20226;-74
2021/11/15 04:00:00;;;;;;;88.18;46.67;;;;;;;3.77;100.00;100222.31;2088209;28;20630;-75
2021/11/15 04:01:02;;;;;;;84.60;45.63;;;;;;;3.82;100.00;100225.91;2088251;28;20225;-74
2021/11/15 04:02:06;;;;;;;88.30;45.78;;;;;;;3.84;100.00;100225.66;2086693;28;20222;-75
2021/11/15 04:03:16;;;;;;;72.97;43.50;;;;;;;3.91;100.00;100229.84;2087274;28;20292;-75
2021/11/15 04:04:21;;;;;;;81.18;44.67;;;;;;;3.89;100.00;100226.59;2088676;28;20231;-75
2021/11/15 04:05:27;;;;;;;83.95;45.00;;;;;;;3.87;100.00;100239.22;2087375;28;20223;-75
2021/11/15 04:06:30;;;;;;;83.13;45.88;;;;;;;3.87;100.00;100225.22;2095816;28;20214;-75
2021/11/15 04:07:37;;;;;;;85.18;47.53;;;;;;;3.84;100.00;100229.13;2096367;28;20233;-75
2021/11/15 04:08:40;;;;;;;85.65;46.28;;;;;;;3.80;100.00;100233.22;2087783;28;20740;-75
2021/11/15 04:09:41;;;;;;;85.38;45.97;;;;;;;3.77;100.00;100227.59;2087469;28;20226;-75
2021/11/15 04:10:45;;;;;;;81.40;45.43;;;;;;;3.76;100.00;100232.06;2087421;28;21480;-74
2021/11/15 04:11:47;;;;;;;88.05;47.17;;;;;;;3.77;100.00;100228.38;2088184;28;20214;-75
2021/11/15 04:12:49;;;;;;;84.13;45.78;;;;;;;3.76;100.00;100232.06;2088152;28;20218;-75
2021/11/15 04:13:55;;;;;;;83.43;45.65;;;;;;;3.74;100.00;100233.31;2087222;28;20225;-75
2021/11/15 04:14:56;;;;;;;80.75;45.53;;;;;;;3.72;100.00;100235.34;2086925;28;20720;-75
2021/11/15 04:16:00;;;;;;;89.35;45.45;;;;;;;3.76;100.00;100234.69;2087282;28;20284;-75
2021/11/15 04:17:02;;;;;;;84.70;45.40;;;;;;;3.90;100.00;100227.41;2079217;28;20227;-75
2021/11/15 04:18:04;;;;;;;87.20;45.72;;;;;;;3.97;100.00;100231.56;2087262;28;20634;-75
2021/11/15 04:19:11;;;;;;;84.22;45.53;;;;;;;3.97;100.00;100231.56;2088070;28;20239;-75
2021/11/15 04:20:13;;;;;;;84.55;45.75;;;;;;;3.91;100.00;100229.03;2087769;28;20723;-75
2021/11/15 04:21:16;;;;;;;80.25;44.75;;;;;;;3.86;100.00;100229.69;2086808;28;20721;-75
2021/11/15 04:22:16;;;;;;;86.35;44.50;;;;;;;3.84;100.00;100234.41;2087312;28;20288;-74
2021/11/15 04:23:18;;;;;;;78.47;44.90;;;;;;;3.76;100.00;100232.06;2087993;28;20284;-75
2021/11/15 04:24:20;;;;;;;80.43;45.22;;;;;;;3.77;100.00;100227.59;2087955;28;20222;-74
2021/11/15 04:25:23;;;;;;;82.60;44.38;;;;;;;3.71;100.00;100229.28;2087276;28;20229;-75
2021/11/15 04:26:25;;;;;;;84.38;45.92;;;;;;;3.73;100.00;100216.66;2086916;28;20562;-75
2021/11/15 04:27:27;;;;;;;77.72;44.67;;;;;;;3.75;100.00;100219.91;2086753;28;20570;-74
2021/11/15 04:28:28;;;;;;;79.63;46.30;;;;;;;3.71;100.00;100213.44;2087284;28;20218;-74
2021/11/15 04:29:30;;;;;;;81.47;45.00;;;;;;;3.71;100.00;100220.53;2087076;28;20310;-75
2021/11/15 04:30:31;;;;;;;80.50;44.40;;;;;;;3.79;100.00;100226.31;2087244;28;20477;-74
2021/11/15 04:31:33;;;;;;;83.90;46.57;;;;;;;3.93;100.00;100219.84;2087908;28;20226;-75
2021/11/15 04:32:34;;;;;;;77.32;44.30;;;;;;;3.88;100.00;100219.72;2087260;28;20595;-75
2021/11/15 04:33:36;;;;;;;74.73;44.20;;;;;;;3.80;100.00;100217.38;2087283;28;20227;-75
2021/11/15 04:34:37;;;;;;;75.32;43.10;;;;;;;3.72;100.00;100209.75;2087643;28;20462;-74
2021/11/15 04:35:39;;;;;;;79.03;44.83;;;;;;;3.72;100.00;100215.03;2087050;28;20701;-75
2021/11/15 04:36:41;;;;;;;80.25;45.10;;;;;;;3.74;100.00;100217.47;2078481;28;20246;-75
2021/11/15 04:37:42;;;;;;;72.00;43.88;;;;;;;3.72;100.00;100209.75;2078956;28;20274;-75
2021/11/15 04:38:43;;;;;;;83.35;43.92;;;;;;;3.74;100.00;100217.47;2087191;28;20623;-75
2021/11/15 04:39:45;;;;;;;77.83;43.97;;;;;;;3.74;100.00;100220.94;2087986;28;20226;-75
2021/11/15 04:40:46;;;;;;;69.20;41.33;;;;;;;3.86;100.00;100221.78;2087860;28;20970;-74
2021/11/15 04:41:50;;;;;;;74.07;42.67;;;;;;;3.92;100.00;100223.53;2087482;28;20665;-74
2021/11/15 04:42:50;;;;;;;76.70;42.47;;;;;;;3.88;100.00;100213.63;2087947;28;20685;-75